ADDS METAR Data INFO
IDs: Format: Raw Decoded Include TAF

Data at: 2334 UTC 19 Oct 2017

KORG 192315Z AUTO 00000KT 10SM CLR 25/18 A3011 RMK AO2 T02480184
KORG 192255Z AUTO 12004KT 10SM CLR 25/18 A3011 RMK AO2 T02510182
KORG 192235Z AUTO 11003KT 10SM CLR 26/18 A3011 RMK AO2 T02560180
KORG 192215Z AUTO 11005KT 10SM CLR 26/17 A3011 RMK AO2 T02600172
KORG 192155Z AUTO 09007KT 10SM CLR 26/17 A3011 RMK AO2 T02640171
KORG 192135Z AUTO 10007KT 10SM CLR 27/17 A3011 RMK AO2 T02650165
KORG 192115Z AUTO 08003KT 10SM CLR 27/16 A3012 RMK AO2 T02680159
KORG 192055Z AUTO 13007KT 10SM CLR 27/15 A3012 RMK AO2 T02730152
KORG 192035Z AUTO 11006KT 10SM CLR 27/14 A3012 RMK AO2 T02740139
KORG 192015Z AUTO 07009KT 10SM CLR 28/14 A3012 RMK AO2 T02750143
KORG 191955Z AUTO 05007KT 10SM CLR 27/14 A3012 RMK AO2 T02720139
KORG 191935Z AUTO 10010KT 10SM CLR 27/14 A3013 RMK AO2 T02740142
KORG 191915Z AUTO 09009KT 10SM CLR 27/15 A3013 RMK AO2 T02700145
KORG 191855Z AUTO 06010KT 10SM CLR 27/15 A3014 RMK AO2 T02670147 TSNO
KORG 191835Z AUTO 10SM CLR 27/15 A3015 RMK AO2 T02670148
KORG 191815Z AUTO 10SM CLR 26/15 A3016 RMK AO2 T02630154 TSNO
KORG 191755Z AUTO 09009KT 10SM CLR 26/16 A3017 RMK AO2 T02610155 10262 20170
KORG 191735Z AUTO 05007KT 010V070 10SM CLR 26/16 A3018 RMK AO2 T02610156
KORG 191715Z AUTO 06008KT 10SM CLR 26/17 A3019 RMK AO2 T02570165
KORG 191655Z AUTO 08007KT 10SM CLR 25/16 A3020 RMK AO2 T02540161
KORG 191635Z AUTO 06008KT 040V110 10SM CLR 25/16 A3020 RMK AO2 T02500160
KORG 191615Z AUTO 07009KT 10SM CLR 25/16 A3020 RMK AO2 T02470162
KORG 191555Z AUTO 08009KT 10SM CLR 24/17 A3020 RMK AO2 T02420169
KORG 191535Z AUTO 09007KT 10SM CLR 23/18 A3020 RMK AO2 T02340175
KORG 191515Z AUTO 08008KT 10SM CLR 22/18 A3020 RMK AO2 T02240176
KORG 191455Z AUTO 09006KT 10SM CLR 22/18 A3020 RMK AO2 T02180178
KORG 191435Z AUTO 09007KT 10SM CLR 21/18 A3019 RMK AO2 T02080182
KORG 191415Z AUTO 08007KT 10SM CLR 20/19 A3019 RMK AO2 T02010186
KORG 191355Z AUTO 08007KT 10SM CLR 20/19 A3018 RMK AO2 T01960186
KORG 191335Z AUTO 08007KT 10SM SCT033 19/19 A3017 RMK AO2 T01920186
KORG 191315Z AUTO 08005KT 10SM OVC033 19/18 A3017 RMK AO2 T01850182
KORG 191255Z AUTO 07003KT 10SM BKN033 18/18 A3016 RMK AO2 T01820180
KORG 191235Z AUTO 07004KT 10SM SCT033 17/17 A3016 RMK AO2 T01720171
KORG 191215Z AUTO 00000KT 10SM SCT033 17/17 A3015 RMK AO2 T01710167
KORG 191155Z AUTO 08003KT 10SM BKN033 17/17 A3015 RMK AO2 T01730172 10177 20142
KORG 191135Z AUTO 00000KT 10SM BKN033 17/17 A3015 RMK AO2 T01730173
KORG 191115Z AUTO 00000KT 10SM BKN033 18/18 A3015 RMK AO2 T01750175
KORG 191055Z AUTO 08003KT 10SM SCT033 17/17 A3014 RMK AO2 T01710171
KORG 191035Z AUTO 08003KT 10SM SCT033 17/17 A3013 RMK AO2 T01720171
KORG 191015Z AUTO 08003KT 10SM CLR 18/18 A3013 RMK AO2 T01750175
KORG 190955Z AUTO 08003KT 10SM CLR 18/18 A3013 RMK AO2 T01750175
KORG 190935Z AUTO 07004KT 10SM CLR 18/18 A3013 RMK AO2 T01770177
KORG 190915Z AUTO 07003KT 10SM SCT033 17/17 A3012 RMK AO2 T01730173
KORG 190855Z AUTO 00000KT 10SM BKN031 17/17 A3013 RMK AO2 T01710171
KORG 190835Z AUTO 00000KT 7SM BKN033 17/17 A3013 RMK AO2 T01650165
KORG 190815Z AUTO 00000KT 7SM CLR 16/16 A3013 RMK AO2 T01640164
KORG 190755Z AUTO 00000KT 7SM SCT003 16/16 A3014 RMK AO2 T01580158
KORG 190735Z AUTO 00000KT 1/2SM FG BKN003 15/15 A3013 RMK AO2 T01460146
KORG 190715Z AUTO 00000KT 1 1/4SM BR VV007 15/15 A3013 RMK AO2 T01520152
KORG 190655Z AUTO 00000KT 1 1/4SM BR VV007 15/15 A3013 RMK AO2 T01450145
KORG 190635Z AUTO 00000KT 1 3/4SM BR VV007 15/15 A3014 RMK AO2 VIS 1V3 T01510151
KORG 190615Z AUTO 00000KT 1/2SM FG VV005 15/15 A3014 RMK AO2 T01490149
KORG 190555Z AUTO 00000KT 1SM BR VV007 15/15 A3015 RMK AO2 T01500150 10215 20147 402760096
KORG 190535Z AUTO 00000KT 2SM BR CLR 15/15 A3015 RMK AO2 T01530153
KORG 190515Z AUTO 00000KT 2 1/2SM BR CLR 15/15 A3015 RMK AO2 T01500150
KORG 190455Z AUTO 00000KT 2SM BR CLR 15/15 A3016 RMK AO2 T01500150
KORG 190435Z AUTO 00000KT 3SM BR CLR 16/16 A3016 RMK AO2 T01580158
KORG 190415Z AUTO 00000KT 3SM BR CLR 16/16 A3017 RMK AO2 T01610161
KORG 190355Z AUTO 00000KT 4SM BR CLR 16/16 A3017 RMK AO2 T01570157
KORG 190335Z AUTO 00000KT 2 1/2SM BR CLR 16/16 A3017 RMK AO2 VIS 3/4V5 T01570157
KORG 190315Z AUTO 00000KT 2 1/2SM BR CLR 16/16 A3017 RMK AO2 VIS 3/4V5 T01610161
KORG 190255Z AUTO 00000KT 7SM CLR 16/16 A3016 RMK AO2 T01600160
KORG 190235Z AUTO 00000KT 10SM CLR 16/16 A3016 RMK AO2 T01610160
KORG 190215Z AUTO 00000KT 10SM CLR 16/16 A3016 RMK AO2 T01640163
KORG 190155Z AUTO 00000KT 10SM CLR 17/16 A3016 RMK AO2 T01650160
KORG 190135Z AUTO 00000KT 10SM CLR 17/16 A3015 RMK AO2 T01670160
KORG 190115Z AUTO 00000KT 10SM CLR 18/16 A3015 RMK AO2 T01760163
KORG 190055Z AUTO 00000KT 10SM CLR 18/16 A3015 RMK AO2 T01760160
KORG 190035Z AUTO 00000KT 10SM CLR 18/16 A3014 RMK AO2 T01840161
KORG 190015Z AUTO 00000KT 10SM CLR 20/16 A3013 RMK AO2 T02000162
KORG 182355Z AUTO 00000KT 10SM CLR 22/16 A3013 RMK AO2 T02170162 10276 20217
KORG 182335Z AUTO 00000KT 10SM CLR 23/16 A3013 RMK AO2 T02340161
KORG 182315Z AUTO 18003KT 10SM CLR 25/17 A3013 RMK AO2 T02480165
KORG 182255Z AUTO 15004KT 10SM CLR 26/16 A3012 RMK AO2 T02580156
KORG 182235Z AUTO 17005KT 10SM CLR 26/15 A3012 RMK AO2 T02610153
KORG 182215Z AUTO 14004KT 10SM CLR 27/15 A3012 RMK AO2 T02670151
KORG 182155Z AUTO 00000KT 10SM CLR 27/14 A3012 RMK AO2 T02690144
KORG 182135Z AUTO 09006KT 10SM CLR 27/15 A3012 RMK AO2 T02710146
KORG 182115Z AUTO 10003KT 10SM CLR 27/15 A3012 RMK AO2 T02740145
KORG 182055Z AUTO 04004KT 10SM CLR 27/14 A3013 RMK AO2 T02740140
KORG 182035Z AUTO 07004KT 10SM CLR 27/15 A3013 RMK AO2 T02710149
KORG 182015Z AUTO 12004KT 10SM CLR 27/15 A3014 RMK AO2 T02720154
KORG 181955Z AUTO 06005KT 10SM CLR 27/15 A3014 RMK AO2 T02700145
KORG 181935Z AUTO 06004KT 10SM CLR 27/15 A3014 RMK AO2 T02690149
KORG 181915Z AUTO 00000KT 10SM CLR 26/15 A3015 RMK AO2 T02640149
KORG 181855Z AUTO 09003KT 10SM CLR 26/15 A3016 RMK AO2 T02630152
KORG 181835Z AUTO 00000KT 10SM CLR 26/16 A3017 RMK AO2 T02570156
KORG 181815Z AUTO 15005KT 10SM CLR 25/17 A3018 RMK AO2 T02520167
KORG 181755Z AUTO 13003KT 10SM SCT032 26/17 A3019 RMK AO2 T02550167 10255 20099
KORG 181735Z AUTO 12005KT 10SM SCT032 25/17 A3019 RMK AO2 T02500169
KORG 181715Z AUTO 10006KT 10SM SCT032 25/17 A3020 RMK AO2 T02500172
KORG 181655Z AUTO 08003KT 10SM CLR 24/17 A3020 RMK AO2 T02410170
KORG 181635Z AUTO 11005KT 10SM CLR 24/17 A3020 RMK AO2 T02410170
KORG 181615Z AUTO 08006KT 10SM CLR 24/17 A3021 RMK AO2 T02360167
KORG 181555Z AUTO 09004KT 10SM CLR 23/17 A3021 RMK AO2 T02330165
KORG 181535Z AUTO 07005KT 10SM CLR 23/16 A3021 RMK AO2 T02270162
KORG 181515Z AUTO 09005KT 10SM CLR 22/16 A3021 RMK AO2 T02200158
KORG 181455Z AUTO 09005KT 10SM CLR 21/16 A3021 RMK AO2 T02110159 TSNO
KORG 181435Z AUTO 06004KT 10SM CLR 19/16 A3020 RMK AO2 T01930157
KORG 181415Z AUTO 05003KT 10SM CLR 18/15 A3020 RMK AO2 T01760153
KORG 181355Z AUTO 03003KT 10SM CLR 16/14 A3020 RMK AO2 T01590144
KORG 181335Z AUTO 00000KT 10SM CLR 14/14 A3019 RMK AO2 T01400135
KORG 181315Z AUTO 00000KT 10SM CLR 13/13 A3018 RMK AO2 T01250125
KORG 181255Z AUTO 00000KT 10SM CLR 11/11 A3018 RMK AO2 T01110111
KORG 181235Z AUTO 00000KT 10SM CLR 10/10 A3017 RMK AO2 T01000100
KORG 181215Z AUTO 00000KT 10SM CLR 10/10 A3017 RMK AO2 T01000100
KORG 181155Z AUTO 00000KT 10SM CLR 10/10 A3017 RMK AO2 T01040104 10110 20096
KORG 181135Z AUTO 00000KT 10SM CLR 11/11 A3017 RMK AO2 T01080108